sensor_id;sensor_type;location;lat;lon;timestamp;temperature;humidity
25320;DHT22;13256;49.012;8.610;2023-11-21T00:01:33;9.30;99.90
25320;DHT22;13256;49.012;8.610;2023-11-21T00:04:03;9.30;99.90
25320;DHT22;13256;49.012;8.610;2023-11-21T00:06:31;9.40;99.90
25320;DHT22;13256;49.012;8.610;2023-11-21T00:09:16;9.40;99.90
25320;DHT22;13256;49.012;8.610;2023-11-21T00:11:46;9.40;99.90
25320;DHT22;13256;49.012;8.610;2023-11-21T00:14:15;9.40;99.90
25320;DHT22;13256;49.012;8.610;2023-11-21T00:16:43;9.40;99.90
25320;DHT22;13256;49.012;8.610;2023-11-21T00:19:10;9.50;99.90
25320;DHT22;13256;49.012;8.610;2023-11-21T00:21:37;9.50;99.90
25320;DHT22;13256;49.012;8.610;2023-11-21T00:24:08;9.50;99.90
25320;DHT22;13256;49.012;8.610;2023-11-21T00:26:36;9.50;99.90
25320;DHT22;13256;49.012;8.610;2023-11-21T00:29:09;9.50;99.90
25320;DHT22;13256;49.012;8.610;2023-11-21T00:31:37;9.60;99.90
25320;DHT22;13256;49.012;8.610;2023-11-21T00:34:05;9.60;99.90
25320;DHT22;13256;49.012;8.610;2023-11-21T00:36:37;9.60;99.90
25320;DHT22;13256;49.012;8.610;2023-11-21T00:39:11;9.60;99.90
25320;DHT22;13256;49.012;8.610;2023-11-21T00:41:38;9.60;99.90
25320;DHT22;13256;49.012;8.610;2023-11-21T00:44:06;9.60;99.90
25320;DHT22;13256;49.012;8.610;2023-11-21T00:46:33;9.70;99.90
25320;DHT22;13256;49.012;8.610;2023-11-21T00:49:04;9.70;99.90
25320;DHT22;13256;49.012;8.610;2023-11-21T00:51:31;9.70;99.90
25320;DHT22;13256;49.012;8.610;2023-11-21T00:54:02;9.70;99.90
25320;DHT22;13256;49.012;8.610;2023-11-21T00:56:29;9.70;99.90
25320;DHT22;13256;49.012;8.610;2023-11-21T00:58:57;9.70;99.90
25320;DHT22;13256;49.012;8.610;2023-11-21T01:01:26;9.80;99.90
25320;DHT22;13256;49.012;8.610;2023-11-21T01:07:18;9.80;99.90
25320;DHT22;13256;49.012;8.610;2023-11-21T01:09:51;9.90;99.90
25320;DHT22;13256;49.012;8.610;2023-11-21T01:12:18;9.90;99.90
25320;DHT22;13256;49.012;8.610;2023-11-21T01:17:36;9.90;99.90
25320;DHT22;13256;49.012;8.610;2023-11-21T01:20:11;9.80;99.90
25320;DHT22;13256;49.012;8.610;2023-11-21T01:22:53;9.80;99.90
25320;DHT22;13256;49.012;8.610;2023-11-21T01:25:21;9.80;99.90
25320;DHT22;13256;49.012;8.610;2023-11-21T01:27:52;9.80;99.90
25320;DHT22;13256;49.012;8.610;2023-11-21T01:30:25;9.90;99.90
25320;DHT22;13256;49.012;8.610;2023-11-21T01:32:55;9.90;99.90
25320;DHT22;13256;49.012;8.610;2023-11-21T01:35:26;9.90;99.90
25320;DHT22;13256;49.012;8.610;2023-11-21T01:37:53;9.90;99.90
25320;DHT22;13256;49.012;8.610;2023-11-21T01:40:30;9.90;99.90
25320;DHT22;13256;49.012;8.610;2023-11-21T01:42:58;9.80;99.90
25320;DHT22;13256;49.012;8.610;2023-11-21T01:45:30;9.80;99.90
25320;DHT22;13256;49.012;8.610;2023-11-21T01:51:17;9.90;99.90
25320;DHT22;13256;49.012;8.610;2023-11-21T01:53:49;9.80;99.90
25320;DHT22;13256;49.012;8.610;2023-11-21T01:56:19;9.80;99.90
25320;DHT22;13256;49.012;8.610;2023-11-21T01:58:50;9.80;99.90
25320;DHT22;13256;49.012;8.610;2023-11-21T02:01:26;9.70;99.90
25320;DHT22;13256;49.012;8.610;2023-11-21T02:04:00;9.70;99.90
25320;DHT22;13256;49.012;8.610;2023-11-21T02:06:29;9.70;99.90
25320;DHT22;13256;49.012;8.610;2023-11-21T02:08:58;9.70;99.90
25320;DHT22;13256;49.012;8.610;2023-11-21T02:11:37;9.70;99.90
25320;DHT22;13256;49.012;8.610;2023-11-21T02:14:08;9.70;99.90
25320;DHT22;13256;49.012;8.610;2023-11-21T02:17:03;9.70;99.90
25320;DHT22;13256;49.012;8.610;2023-11-21T02:19:33;9.60;99.90
25320;DHT22;13256;49.012;8.610;2023-11-21T02:22:06;9.60;99.90
25320;DHT22;13256;49.012;8.610;2023-11-21T02:24:35;9.60;99.90
25320;DHT22;13256;49.012;8.610;2023-11-21T02:27:06;9.60;99.90
25320;DHT22;13256;49.012;8.610;2023-11-21T02:29:32;9.60;99.90
25320;DHT22;13256;49.012;8.610;2023-11-21T02:32:04;9.50;99.90
25320;DHT22;13256;49.012;8.610;2023-11-21T02:37:15;9.50;99.90
25320;DHT22;13256;49.012;8.610;2023-11-21T02:39:43;9.50;99.90
25320;DHT22;13256;49.012;8.610;2023-11-21T02:42:10;9.50;99.90
25320;DHT22;13256;49.012;8.610;2023-11-21T02:44:44;9.50;99.90
25320;DHT22;13256;49.012;8.610;2023-11-21T02:47:10;9.40;99.90
25320;DHT22;13256;49.012;8.610;2023-11-21T02:49:42;9.40;99.90
25320;DHT22;13256;49.012;8.610;2023-11-21T02:52:12;9.40;99.90
25320;DHT22;13256;49.012;8.610;2023-11-21T02:54:45;9.30;99.90
25320;DHT22;13256;49.012;8.610;2023-11-21T02:57:16;9.30;99.90
25320;DHT22;13256;49.012;8.610;2023-11-21T02:59:46;9.30;99.90
25320;DHT22;13256;49.012;8.610;2023-11-21T03:02:14;9.30;99.90
25320;DHT22;13256;49.012;8.610;2023-11-21T03:07:51;9.20;99.90
25320;DHT22;13256;49.012;8.610;2023-11-21T03:13:14;9.30;99.90
25320;DHT22;13256;49.012;8.610;2023-11-21T03:15:48;9.30;99.90
25320;DHT22;13256;49.012;8.610;2023-11-21T03:18:16;9.30;99.90
25320;DHT22;13256;49.012;8.610;2023-11-21T03:20:51;9.20;99.90
25320;DHT22;13256;49.012;8.610;2023-11-21T03:23:20;9.20;99.90
25320;DHT22;13256;49.012;8.610;2023-11-21T03:25:48;9.20;99.90
25320;DHT22;13256;49.012;8.610;2023-11-21T03:28:16;9.20;99.90
25320;DHT22;13256;49.012;8.610;2023-11-21T03:31:12;9.20;99.90
25320;DHT22;13256;49.012;8.610;2023-11-21T03:34:09;9.20;99.90
25320;DHT22;13256;49.012;8.610;2023-11-21T03:36:44;9.20;99.90
25320;DHT22;13256;49.012;8.610;2023-11-21T03:39:16;9.20;99.90
25320;DHT22;13256;49.012;8.610;2023-11-21T03:41:44;9.20;99.90
25320;DHT22;13256;49.012;8.610;2023-11-21T03:44:14;9.20;99.90
25320;DHT22;13256;49.012;8.610;2023-11-21T03:46:45;9.20;99.90
25320;DHT22;13256;49.012;8.610;2023-11-21T03:49:14;9.20;99.90
25320;DHT22;13256;49.012;8.610;2023-11-21T03:51:41;9.20;99.90
25320;DHT22;13256;49.012;8.610;2023-11-21T03:54:13;9.20;99.90
25320;DHT22;13256;49.012;8.610;2023-11-21T03:56:41;9.20;99.90
25320;DHT22;13256;49.012;8.610;2023-11-21T03:59:11;9.20;99.90
25320;DHT22;13256;49.012;8.610;2023-11-21T04:01:38;9.20;99.90
25320;DHT22;13256;49.012;8.610;2023-11-21T04:04:06;9.20;99.90
25320;DHT22;13256;49.012;8.610;2023-11-21T04:06:42;9.20;99.90
25320;DHT22;13256;49.012;8.610;2023-11-21T04:09:11;9.20;99.90
25320;DHT22;13256;49.012;8.610;2023-11-21T04:11:40;9.20;99.90
25320;DHT22;13256;49.012;8.610;2023-11-21T04:14:07;9.20;99.90
25320;DHT22;13256;49.012;8.610;2023-11-21T04:16:38;9.20;99.90
25320;DHT22;13256;49.012;8.610;2023-11-21T04:19:08;9.20;99.90
25320;DHT22;13256;49.012;8.610;2023-11-21T04:21:41;9.20;99.90
25320;DHT22;13256;49.012;8.610;2023-11-21T04:24:09;9.20;99.90
25320;DHT22;13256;49.012;8.610;2023-11-21T04:26:40;9.30;99.90
25320;DHT22;13256;49.012;8.610;2023-11-21T04:29:06;9.20;99.90
25320;DHT22;13256;49.012;8.610;2023-11-21T04:31:37;9.30;99.90
25320;DHT22;13256;49.012;8.610;2023-11-21T04:37:00;9.30;99.90
25320;DHT22;13256;49.012;8.610;2023-11-21T04:39:31;9.30;99.90
25320;DHT22;13256;49.012;8.610;2023-11-21T04:42:02;9.30;99.90
25320;DHT22;13256;49.012;8.610;2023-11-21T04:45:00;9.30;99.90
25320;DHT22;13256;49.012;8.610;2023-11-21T04:47:31;9.30;99.90
25320;DHT22;13256;49.012;8.610;2023-11-21T04:50:01;9.30;99.90
25320;DHT22;13256;49.012;8.610;2023-11-21T04:52:33;9.30;99.90
25320;DHT22;13256;49.012;8.610;2023-11-21T04:55:01;9.30;99.90
25320;DHT22;13256;49.012;8.610;2023-11-21T04:57:32;9.30;99.90
25320;DHT22;13256;49.012;8.610;2023-11-21T05:00:03;9.30;99.90
25320;DHT22;13256;49.012;8.610;2023-11-21T05:02:34;9.40;99.90
25320;DHT22;13256;49.012;8.610;2023-11-21T05:05:06;9.30;99.90
25320;DHT22;13256;49.012;8.610;2023-11-21T05:16:44;9.30;99.90
25320;DHT22;13256;49.012;8.610;2023-11-21T05:54:08;9.10;99.90
25320;DHT22;13256;49.012;8.610;2023-11-21T06:02:42;9.10;99.90
25320;DHT22;13256;49.012;8.610;2023-11-21T06:05:09;9.10;99.90
25320;DHT22;13256;49.012;8.610;2023-11-21T06:07:40;9.10;99.90
25320;DHT22;13256;49.012;8.610;2023-11-21T06:10:17;9.10;99.90
25320;DHT22;13256;49.012;8.610;2023-11-21T06:12:49;9.10;99.90
25320;DHT22;13256;49.012;8.610;2023-11-21T06:15:17;9.10;99.90
25320;DHT22;13256;49.012;8.610;2023-11-21T06:17:47;9.20;99.90
25320;DHT22;13256;49.012;8.610;2023-11-21T06:20:25;9.10;99.90
25320;DHT22;13256;49.012;8.610;2023-11-21T06:22:53;9.10;99.90
25320;DHT22;13256;49.012;8.610;2023-11-21T06:25:21;9.10;99.90
25320;DHT22;13256;49.012;8.610;2023-11-21T06:27:49;9.10;99.90
25320;DHT22;13256;49.012;8.610;2023-11-21T06:30:22;9.10;99.90
25320;DHT22;13256;49.012;8.610;2023-11-21T06:32:51;9.10;99.90
25320;DHT22;13256;49.012;8.610;2023-11-21T06:43:49;9.10;99.90
25320;DHT22;13256;49.012;8.610;2023-11-21T06:46:21;9.10;99.90
25320;DHT22;13256;49.012;8.610;2023-11-21T06:51:40;9.10;99.90
25320;DHT22;13256;49.012;8.610;2023-11-21T06:57:14;9.00;99.90
25320;DHT22;13256;49.012;8.610;2023-11-21T06:59:46;9.00;99.90
25320;DHT22;13256;49.012;8.610;2023-11-21T07:02:17;9.00;99.90
25320;DHT22;13256;49.012;8.610;2023-11-21T07:23:12;9.00;99.90
25320;DHT22;13256;49.012;8.610;2023-11-21T07:28:38;9.00;99.90
25320;DHT22;13256;49.012;8.610;2023-11-21T07:31:08;9.00;99.90
25320;DHT22;13256;49.012;8.610;2023-11-21T07:33:37;9.00;99.90
25320;DHT22;13256;49.012;8.610;2023-11-21T07:36:07;9.00;99.90
25320;DHT22;13256;49.012;8.610;2023-11-21T07:38:35;9.00;99.90
25320;DHT22;13256;49.012;8.610;2023-11-21T07:41:03;9.00;99.90
25320;DHT22;13256;49.012;8.610;2023-11-21T07:43:31;9.00;99.90
25320;DHT22;13256;49.012;8.610;2023-11-21T07:46:03;9.00;99.90
25320;DHT22;13256;49.012;8.610;2023-11-21T07:48:33;9.00;99.90
25320;DHT22;13256;49.012;8.610;2023-11-21T07:51:02;9.00;99.90
25320;DHT22;13256;49.012;8.610;2023-11-21T08:02:22;9.10;99.90
25320;DHT22;13256;49.012;8.610;2023-11-21T08:04:52;9.20;99.90
25320;DHT22;13256;49.012;8.610;2023-11-21T08:16:04;9.20;99.90
25320;DHT22;13256;49.012;8.610;2023-11-21T08:18:37;9.20;99.90
25320;DHT22;13256;49.012;8.610;2023-11-21T08:24:03;9.30;99.90
25320;DHT22;13256;49.012;8.610;2023-11-21T08:29:47;9.30;99.90
25320;DHT22;13256;49.012;8.610;2023-11-21T08:32:18;9.30;99.90
25320;DHT22;13256;49.012;8.610;2023-11-21T08:34:51;9.30;99.90
25320;DHT22;13256;49.012;8.610;2023-11-21T08:40:25;9.40;99.90
25320;DHT22;13256;49.012;8.610;2023-11-21T09:12:06;9.60;99.90
25320;DHT22;13256;49.012;8.610;2023-11-21T09:14:36;9.60;99.90
25320;DHT22;13256;49.012;8.610;2023-11-21T09:17:08;9.60;99.90
25320;DHT22;13256;49.012;8.610;2023-11-21T09:19:40;9.60;99.90
25320;DHT22;13256;49.012;8.610;2023-11-21T09:22:07;9.60;99.90
25320;DHT22;13256;49.012;8.610;2023-11-21T09:24:34;9.60;99.90
25320;DHT22;13256;49.012;8.610;2023-11-21T09:27:02;9.60;99.90
25320;DHT22;13256;49.012;8.610;2023-11-21T09:29:29;9.70;99.90
25320;DHT22;13256;49.012;8.610;2023-11-21T09:31:59;9.70;99.90
25320;DHT22;13256;49.012;8.610;2023-11-21T09:34:28;9.70;99.90
25320;DHT22;13256;49.012;8.610;2023-11-21T09:37:23;9.80;99.90
25320;DHT22;13256;49.012;8.610;2023-11-21T09:39:51;9.80;99.90
25320;DHT22;13256;49.012;8.610;2023-11-21T09:42:30;9.80;99.90
25320;DHT22;13256;49.012;8.610;2023-11-21T09:45:15;9.80;99.90
25320;DHT22;13256;49.012;8.610;2023-11-21T09:47:47;9.80;99.90
25320;DHT22;13256;49.012;8.610;2023-11-21T09:50:17;9.80;99.90
25320;DHT22;13256;49.012;8.610;2023-11-21T09:52:58;9.80;99.90
25320;DHT22;13256;49.012;8.610;2023-11-21T09:55:37;9.80;99.90
25320;DHT22;13256;49.012;8.610;2023-11-21T09:58:05;9.80;99.90
25320;DHT22;13256;49.012;8.610;2023-11-21T10:00:35;9.80;99.90
25320;DHT22;13256;49.012;8.610;2023-11-21T10:03:02;9.70;99.90
25320;DHT22;13256;49.012;8.610;2023-11-21T10:05:29;9.80;99.90
25320;DHT22;13256;49.012;8.610;2023-11-21T10:08:00;9.80;99.90
25320;DHT22;13256;49.012;8.610;2023-11-21T10:10:30;9.70;99.90
25320;DHT22;13256;49.012;8.610;2023-11-21T10:13:01;9.80;99.90
25320;DHT22;13256;49.012;8.610;2023-11-21T10:15:30;9.80;99.90
25320;DHT22;13256;49.012;8.610;2023-11-21T10:18:06;9.80;99.90
25320;DHT22;13256;49.012;8.610;2023-11-21T10:20:36;9.70;99.90
25320;DHT22;13256;49.012;8.610;2023-11-21T10:23:09;9.80;99.90
25320;DHT22;13256;49.012;8.610;2023-11-21T10:25:38;9.80;99.90
25320;DHT22;13256;49.012;8.610;2023-11-21T10:28:12;9.80;99.90
25320;DHT22;13256;49.012;8.610;2023-11-21T10:30:38;9.80;99.90
25320;DHT22;13256;49.012;8.610;2023-11-21T10:33:11;9.80;99.90
25320;DHT22;13256;49.012;8.610;2023-11-21T10:38:08;9.80;99.90
25320;DHT22;13256;49.012;8.610;2023-11-21T10:40:40;9.80;99.90
25320;DHT22;13256;49.012;8.610;2023-11-21T10:43:20;9.80;99.90
25320;DHT22;13256;49.012;8.610;2023-11-21T10:45:51;9.80;99.90
25320;DHT22;13256;49.012;8.610;2023-11-21T10:48:22;9.80;99.90
25320;DHT22;13256;49.012;8.610;2023-11-21T10:50:50;9.80;99.90
25320;DHT22;13256;49.012;8.610;2023-11-21T10:53:16;9.80;99.90
25320;DHT22;13256;49.012;8.610;2023-11-21T10:55:46;9.80;99.90
25320;DHT22;13256;49.012;8.610;2023-11-21T10:58:14;9.80;99.90
25320;DHT22;13256;49.012;8.610;2023-11-21T11:00:44;9.80;99.90
25320;DHT22;13256;49.012;8.610;2023-11-21T11:03:12;9.80;99.90
25320;DHT22;13256;49.012;8.610;2023-11-21T11:05:47;9.80;99.90
25320;DHT22;13256;49.012;8.610;2023-11-21T11:08:26;9.80;99.90
25320;DHT22;13256;49.012;8.610;2023-11-21T11:10:57;9.80;99.90
25320;DHT22;13256;49.012;8.610;2023-11-21T11:13:25;9.80;99.90
25320;DHT22;13256;49.012;8.610;2023-11-21T11:15:58;9.80;99.90
25320;DHT22;13256;49.012;8.610;2023-11-21T11:18:34;9.80;99.90
25320;DHT22;13256;49.012;8.610;2023-11-21T11:38:09;9.90;99.90
25320;DHT22;13256;49.012;8.610;2023-11-21T11:40:41;10.00;99.90
25320;DHT22;13256;49.012;8.610;2023-11-21T11:43:27;10.00;99.90
25320;DHT22;13256;49.012;8.610;2023-11-21T11:46:02;10.10;99.90
25320;DHT22;13256;49.012;8.610;2023-11-21T11:49:09;10.20;99.90
25320;DHT22;13256;49.012;8.610;2023-11-21T11:51:36;10.20;99.90
25320;DHT22;13256;49.012;8.610;2023-11-21T11:54:08;10.30;99.90
25320;DHT22;13256;49.012;8.610;2023-11-21T11:56:36;10.30;99.90
25320;DHT22;13256;49.012;8.610;2023-11-21T11:59:10;10.30;99.90
25320;DHT22;13256;49.012;8.610;2023-11-21T12:01:37;10.30;99.90
25320;DHT22;13256;49.012;8.610;2023-11-21T12:06:43;10.20;99.90
25320;DHT22;13256;49.012;8.610;2023-11-21T12:09:19;10.20;99.90
25320;DHT22;13256;49.012;8.610;2023-11-21T12:11:48;10.20;99.90
25320;DHT22;13256;49.012;8.610;2023-11-21T12:14:15;10.20;99.90
25320;DHT22;13256;49.012;8.610;2023-11-21T12:16:45;10.20;99.90
25320;DHT22;13256;49.012;8.610;2023-11-21T12:19:13;10.20;99.90
25320;DHT22;13256;49.012;8.610;2023-11-21T12:21:40;10.20;99.90
25320;DHT22;13256;49.012;8.610;2023-11-21T12:24:09;10.20;99.90
25320;DHT22;13256;49.012;8.610;2023-11-21T12:26:36;10.20;99.90
25320;DHT22;13256;49.012;8.610;2023-11-21T12:29:05;10.20;99.90
25320;DHT22;13256;49.012;8.610;2023-11-21T12:31:35;10.20;99.90
25320;DHT22;13256;49.012;8.610;2023-11-21T12:34:04;10.20;99.90
25320;DHT22;13256;49.012;8.610;2023-11-21T12:36:33;10.20;99.90
25320;DHT22;13256;49.012;8.610;2023-11-21T12:39:03;10.20;99.90
25320;DHT22;13256;49.012;8.610;2023-11-21T12:41:32;10.30;99.90
25320;DHT22;13256;49.012;8.610;2023-11-21T12:43:59;10.30;99.90
25320;DHT22;13256;49.012;8.610;2023-11-21T12:46:50;10.30;99.90
25320;DHT22;13256;49.012;8.610;2023-11-21T12:49:23;10.30;99.90
25320;DHT22;13256;49.012;8.610;2023-11-21T12:51:51;10.30;99.90
25320;DHT22;13256;49.012;8.610;2023-11-21T12:54:17;10.30;99.90
25320;DHT22;13256;49.012;8.610;2023-11-21T12:56:49;10.30;99.90
25320;DHT22;13256;49.012;8.610;2023-11-21T12:59:20;10.20;99.90
25320;DHT22;13256;49.012;8.610;2023-11-21T13:01:54;10.20;99.90
25320;DHT22;13256;49.012;8.610;2023-11-21T13:04:32;10.20;99.90
25320;DHT22;13256;49.012;8.610;2023-11-21T13:07:05;10.20;99.90
25320;DHT22;13256;49.012;8.610;2023-11-21T13:09:46;10.20;99.90
25320;DHT22;13256;49.012;8.610;2023-11-21T13:12:13;10.20;99.90
25320;DHT22;13256;49.012;8.610;2023-11-21T13:14:42;10.30;99.90
25320;DHT22;13256;49.012;8.610;2023-11-21T13:17:10;10.30;99.90
25320;DHT22;13256;49.012;8.610;2023-11-21T13:19:40;10.30;99.90
25320;DHT22;13256;49.012;8.610;2023-11-21T13:22:10;10.20;99.90
25320;DHT22;13256;49.012;8.610;2023-11-21T13:24:38;10.30;99.90
25320;DHT22;13256;49.012;8.610;2023-11-21T13:27:06;10.30;99.90
25320;DHT22;13256;49.012;8.610;2023-11-21T13:29:35;10.30;99.90
25320;DHT22;13256;49.012;8.610;2023-11-21T13:32:04;10.30;99.90
25320;DHT22;13256;49.012;8.610;2023-11-21T13:34:33;10.30;99.90
25320;DHT22;13256;49.012;8.610;2023-11-21T13:37:05;10.40;99.90
25320;DHT22;13256;49.012;8.610;2023-11-21T13:39:34;10.50;99.90
25320;DHT22;13256;49.012;8.610;2023-11-21T13:42:02;10.50;99.90
25320;DHT22;13256;49.012;8.610;2023-11-21T13:44:34;10.50;99.90
25320;DHT22;13256;49.012;8.610;2023-11-21T13:47:09;10.60;99.90
25320;DHT22;13256;49.012;8.610;2023-11-21T13:49:36;10.60;99.90
25320;DHT22;13256;49.012;8.610;2023-11-21T13:52:09;10.60;99.90
25320;DHT22;13256;49.012;8.610;2023-11-21T13:54:39;10.60;99.90
25320;DHT22;13256;49.012;8.610;2023-11-21T13:57:07;10.60;99.90
25320;DHT22;13256;49.012;8.610;2023-11-21T13:59:35;10.60;99.90
25320;DHT22;13256;49.012;8.610;2023-11-21T14:02:03;10.60;99.90
25320;DHT22;13256;49.012;8.610;2023-11-21T14:04:44;10.60;99.90
25320;DHT22;13256;49.012;8.610;2023-11-21T14:07:14;10.60;99.90
25320;DHT22;13256;49.012;8.610;2023-11-21T14:09:51;10.60;99.90
25320;DHT22;13256;49.012;8.610;2023-11-21T14:12:19;10.70;99.90
25320;DHT22;13256;49.012;8.610;2023-11-21T14:14:46;10.60;99.90
25320;DHT22;13256;49.012;8.610;2023-11-21T14:17:16;10.60;99.90
25320;DHT22;13256;49.012;8.610;2023-11-21T14:19:46;10.60;99.90
25320;DHT22;13256;49.012;8.610;2023-11-21T14:22:16;10.60;99.90
25320;DHT22;13256;49.012;8.610;2023-11-21T14:24:48;10.60;99.90
25320;DHT22;13256;49.012;8.610;2023-11-21T14:27:18;10.60;99.90
25320;DHT22;13256;49.012;8.610;2023-11-21T14:29:45;10.60;99.90
25320;DHT22;13256;49.012;8.610;2023-11-21T14:32:13;10.60;99.90
25320;DHT22;13256;49.012;8.610;2023-11-21T14:34:44;10.60;99.90
25320;DHT22;13256;49.012;8.610;2023-11-21T14:37:13;10.60;99.90
25320;DHT22;13256;49.012;8.610;2023-11-21T14:39:40;10.50;99.90
25320;DHT22;13256;49.012;8.610;2023-11-21T14:42:13;10.50;99.90
25320;DHT22;13256;49.012;8.610;2023-11-21T14:44:46;10.50;99.90
25320;DHT22;13256;49.012;8.610;2023-11-21T14:47:13;10.50;99.90
25320;DHT22;13256;49.012;8.610;2023-11-21T14:49:44;10.50;99.90
25320;DHT22;13256;49.012;8.610;2023-11-21T14:52:36;10.50;99.90
25320;DHT22;13256;49.012;8.610;2023-11-21T14:55:17;10.50;99.90
25320;DHT22;13256;49.012;8.610;2023-11-21T14:57:47;10.40;99.90
25320;DHT22;13256;49.012;8.610;2023-11-21T15:00:21;10.40;99.90
25320;DHT22;13256;49.012;8.610;2023-11-21T15:03:04;10.40;99.90
25320;DHT22;13256;49.012;8.610;2023-11-21T15:05:40;10.50;99.90
25320;DHT22;13256;49.012;8.610;2023-11-21T15:08:10;10.40;99.90
25320;DHT22;13256;49.012;8.610;2023-11-21T15:10:48;10.40;99.90
25320;DHT22;13256;49.012;8.610;2023-11-21T15:13:25;10.40;99.90
25320;DHT22;13256;49.012;8.610;2023-11-21T15:15:57;10.40;99.90
25320;DHT22;13256;49.012;8.610;2023-11-21T15:18:37;10.40;99.90
25320;DHT22;13256;49.012;8.610;2023-11-21T15:21:09;10.40;99.90
25320;DHT22;13256;49.012;8.610;2023-11-21T15:23:40;10.40;99.90
25320;DHT22;13256;49.012;8.610;2023-11-21T15:26:08;10.30;99.90
25320;DHT22;13256;49.012;8.610;2023-11-21T15:28:36;10.30;99.90
25320;DHT22;13256;49.012;8.610;2023-11-21T15:31:11;10.20;99.90
25320;DHT22;13256;49.012;8.610;2023-11-21T15:33:43;10.10;99.90
25320;DHT22;13256;49.012;8.610;2023-11-21T15:36:10;10.00;99.90
25320;DHT22;13256;49.012;8.610;2023-11-21T15:38:38;10.00;99.90
25320;DHT22;13256;49.012;8.610;2023-11-21T15:41:18;9.90;99.90
25320;DHT22;13256;49.012;8.610;2023-11-21T15:43:45;9.90;99.90
25320;DHT22;13256;49.012;8.610;2023-11-21T15:46:12;9.90;99.90
25320;DHT22;13256;49.012;8.610;2023-11-21T15:48:39;9.90;99.90
25320;DHT22;13256;49.012;8.610;2023-11-21T15:51:17;9.80;99.90
25320;DHT22;13256;49.012;8.610;2023-11-21T15:53:46;9.80;99.90
25320;DHT22;13256;49.012;8.610;2023-11-21T15:56:13;9.80;99.90
25320;DHT22;13256;49.012;8.610;2023-11-21T15:58:48;9.80;99.90
25320;DHT22;13256;49.012;8.610;2023-11-21T16:01:46;9.80;99.90
25320;DHT22;13256;49.012;8.610;2023-11-21T16:04:18;9.80;99.90
25320;DHT22;13256;49.012;8.610;2023-11-21T16:06:49;9.80;99.90
25320;DHT22;13256;49.012;8.610;2023-11-21T16:09:19;9.80;99.90
25320;DHT22;13256;49.012;8.610;2023-11-21T16:11:51;9.80;99.90
25320;DHT22;13256;49.012;8.610;2023-11-21T16:14:21;9.80;99.90
25320;DHT22;13256;49.012;8.610;2023-11-21T16:17:06;9.80;99.90
25320;DHT22;13256;49.012;8.610;2023-11-21T16:19:34;9.80;99.90
25320;DHT22;13256;49.012;8.610;2023-11-21T16:22:03;9.70;99.90
25320;DHT22;13256;49.012;8.610;2023-11-21T16:24:31;9.80;99.90
25320;DHT22;13256;49.012;8.610;2023-11-21T16:27:00;9.80;99.90
25320;DHT22;13256;49.012;8.610;2023-11-21T16:29:26;9.70;99.90
25320;DHT22;13256;49.012;8.610;2023-11-21T16:31:56;9.70;99.90
25320;DHT22;13256;49.012;8.610;2023-11-21T16:34:28;9.70;99.90
25320;DHT22;13256;49.012;8.610;2023-11-21T16:36:55;9.70;99.90
25320;DHT22;13256;49.012;8.610;2023-11-21T16:39:23;9.70;99.90
25320;DHT22;13256;49.012;8.610;2023-11-21T16:41:50;9.70;99.90
25320;DHT22;13256;49.012;8.610;2023-11-21T16:44:21;9.70;99.90
25320;DHT22;13256;49.012;8.610;2023-11-21T16:46:50;9.70;99.90
25320;DHT22;13256;49.012;8.610;2023-11-21T16:49:19;9.70;99.90
25320;DHT22;13256;49.012;8.610;2023-11-21T16:51:47;9.70;99.90
25320;DHT22;13256;49.012;8.610;2023-11-21T16:54:22;9.70;99.90
25320;DHT22;13256;49.012;8.610;2023-11-21T16:56:50;9.60;99.90
25320;DHT22;13256;49.012;8.610;2023-11-21T16:59:17;9.60;99.90
25320;DHT22;13256;49.012;8.610;2023-11-21T17:01:45;9.60;99.90
25320;DHT22;13256;49.012;8.610;2023-11-21T17:04:39;9.60;99.90
25320;DHT22;13256;49.012;8.610;2023-11-21T17:07:19;9.60;99.90
25320;DHT22;13256;49.012;8.610;2023-11-21T17:10:21;9.50;99.90
25320;DHT22;13256;49.012;8.610;2023-11-21T17:12:48;9.50;99.90
25320;DHT22;13256;49.012;8.610;2023-11-21T17:15:16;9.50;99.90
25320;DHT22;13256;49.012;8.610;2023-11-21T17:17:43;9.40;99.90
25320;DHT22;13256;49.012;8.610;2023-11-21T17:20:11;9.40;99.90
25320;DHT22;13256;49.012;8.610;2023-11-21T17:22:39;9.40;99.90
25320;DHT22;13256;49.012;8.610;2023-11-21T17:25:08;9.30;99.90
25320;DHT22;13256;49.012;8.610;2023-11-21T17:27:35;9.30;99.90
25320;DHT22;13256;49.012;8.610;2023-11-21T17:30:02;9.30;99.90
25320;DHT22;13256;49.012;8.610;2023-11-21T17:32:29;9.30;99.90
25320;DHT22;13256;49.012;8.610;2023-11-21T17:34:58;9.30;99.90
25320;DHT22;13256;49.012;8.610;2023-11-21T17:37:27;9.30;99.90
25320;DHT22;13256;49.012;8.610;2023-11-21T17:39:56;9.30;99.90
25320;DHT22;13256;49.012;8.610;2023-11-21T17:42:23;9.20;99.90
25320;DHT22;13256;49.012;8.610;2023-11-21T17:44:52;9.20;99.90
25320;DHT22;13256;49.012;8.610;2023-11-21T17:47:19;9.20;99.90
25320;DHT22;13256;49.012;8.610;2023-11-21T17:50:14;9.10;99.90
25320;DHT22;13256;49.012;8.610;2023-11-21T17:52:43;9.10;99.90
25320;DHT22;13256;49.012;8.610;2023-11-21T17:55:24;9.00;99.90
25320;DHT22;13256;49.012;8.610;2023-11-21T17:57:51;9.00;99.90
25320;DHT22;13256;49.012;8.610;2023-11-21T18:00:20;8.90;99.90
25320;DHT22;13256;49.012;8.610;2023-11-21T18:02:51;9.00;99.90
25320;DHT22;13256;49.012;8.610;2023-11-21T18:05:20;8.90;99.90
25320;DHT22;13256;49.012;8.610;2023-11-21T18:08:15;8.90;99.90
25320;DHT22;13256;49.012;8.610;2023-11-21T18:10:42;8.90;99.90
25320;DHT22;13256;49.012;8.610;2023-11-21T18:13:09;8.90;99.90
25320;DHT22;13256;49.012;8.610;2023-11-21T18:15:38;8.90;99.90
25320;DHT22;13256;49.012;8.610;2023-11-21T18:18:08;8.90;99.90
25320;DHT22;13256;49.012;8.610;2023-11-21T18:20:35;8.90;99.90
25320;DHT22;13256;49.012;8.610;2023-11-21T18:23:02;8.90;99.90
25320;DHT22;13256;49.012;8.610;2023-11-21T18:25:31;8.90;99.90
25320;DHT22;13256;49.012;8.610;2023-11-21T18:28:04;8.90;99.90
25320;DHT22;13256;49.012;8.610;2023-11-21T18:30:31;8.90;99.90
25320;DHT22;13256;49.012;8.610;2023-11-21T18:33:01;8.90;99.90
25320;DHT22;13256;49.012;8.610;2023-11-21T18:35:30;8.90;99.90
25320;DHT22;13256;49.012;8.610;2023-11-21T18:37:59;8.90;99.90
25320;DHT22;13256;49.012;8.610;2023-11-21T18:40:28;9.00;99.90
25320;DHT22;13256;49.012;8.610;2023-11-21T18:42:58;9.00;99.90
25320;DHT22;13256;49.012;8.610;2023-11-21T18:45:28;8.90;99.90
25320;DHT22;13256;49.012;8.610;2023-11-21T18:47:56;8.90;99.90
25320;DHT22;13256;49.012;8.610;2023-11-21T18:50:23;8.90;99.90
25320;DHT22;13256;49.012;8.610;2023-11-21T18:53:18;8.90;99.90
25320;DHT22;13256;49.012;8.610;2023-11-21T18:55:49;8.80;99.90
25320;DHT22;13256;49.012;8.610;2023-11-21T18:58:15;8.80;99.90
25320;DHT22;13256;49.012;8.610;2023-11-21T19:00:43;8.80;99.90
25320;DHT22;13256;49.012;8.610;2023-11-21T19:03:10;8.80;99.90
25320;DHT22;13256;49.012;8.610;2023-11-21T19:05:37;8.80;99.90
25320;DHT22;13256;49.012;8.610;2023-11-21T19:08:04;8.80;99.90
25320;DHT22;13256;49.012;8.610;2023-11-21T19:10:32;8.80;99.90
25320;DHT22;13256;49.012;8.610;2023-11-21T19:13:02;8.80;99.90